createdAt,value
2018-09-05T00:00:37.390Z,0
2018-09-05T00:01:38.104Z,0
2018-09-05T00:02:39.088Z,0
2018-09-05T00:03:39.801Z,0
2018-09-05T00:04:40.813Z,0
2018-09-05T00:05:41.807Z,0
2018-09-05T00:06:42.555Z,0
2018-09-05T00:07:43.267Z,0
2018-09-05T00:08:43.995Z,0
2018-09-05T00:09:44.722Z,0
2018-09-05T00:10:45.447Z,0
2018-09-05T00:11:46.180Z,0
2018-09-05T00:12:46.904Z,0
2018-09-05T00:13:47.635Z,0
2018-09-05T00:14:48.359Z,0
2018-09-05T00:15:49.334Z,0
2018-09-05T00:16:50.111Z,0
2018-09-05T00:17:51.409Z,0
2018-09-05T00:18:52.171Z,0
2018-09-05T00:19:52.967Z,0
2018-09-05T00:20:53.780Z,0
2018-09-05T00:21:54.529Z,0
2018-09-05T00:22:55.455Z,0
2018-09-05T00:23:56.406Z,0
2018-09-05T00:24:57.155Z,0
2018-09-05T00:25:57.986Z,0
2018-09-05T00:26:58.938Z,0
2018-09-05T00:27:59.699Z,0
2018-09-05T00:29:00.487Z,0
2018-09-05T00:30:01.676Z,0
2018-09-05T00:31:02.524Z,0
2018-09-05T00:32:03.663Z,0
2018-09-05T00:33:04.509Z,0
2018-09-05T00:34:05.614Z,0
2018-09-05T00:35:06.702Z,0
2018-09-05T00:36:07.511Z,0
2018-09-05T00:37:08.707Z,0
2018-09-05T00:38:09.481Z,0
2018-09-05T00:39:10.617Z,0
2018-09-05T00:40:11.719Z,0
2018-09-05T00:41:12.462Z,0
2018-09-05T00:42:13.752Z,0
2018-09-05T00:43:14.880Z,0
2018-09-05T00:44:15.630Z,0
2018-09-05T00:45:16.470Z,0
2018-09-05T00:46:17.307Z,0
2018-09-05T00:47:18.012Z,0
2018-09-05T00:48:18.737Z,0
2018-09-05T00:49:19.473Z,0
2018-09-05T00:50:20.204Z,0
2018-09-05T00:51:20.931Z,0
2018-09-05T00:52:21.661Z,0
2018-09-05T00:53:22.379Z,0
2018-09-05T00:54:23.102Z,0
2018-09-05T00:55:24.334Z,0
2018-09-05T00:56:25.067Z,0
2018-09-05T00:57:25.784Z,0
2018-09-05T00:58:26.559Z,0
2018-09-05T00:59:27.285Z,0
2018-09-05T01:00:28.006Z,0
2018-09-05T01:01:28.984Z,0
2018-09-05T01:02:29.719Z,0
2018-09-05T01:03:30.432Z,0
2018-09-05T01:04:31.158Z,0
2018-09-05T01:05:31.879Z,0
2018-09-05T01:06:32.602Z,0
2018-09-05T01:07:33.339Z,0
2018-09-05T01:08:34.105Z,0
2018-09-05T01:09:34.828Z,0
2018-09-05T01:10:35.556Z,0
2018-09-05T01:11:36.527Z,0
2018-09-05T01:12:37.241Z,0
2018-09-05T01:13:37.958Z,0
2018-09-05T01:14:38.683Z,0
2018-09-05T01:15:39.408Z,0
2018-09-05T01:16:40.133Z,0
2018-09-05T01:17:40.863Z,0
2018-09-05T01:18:41.587Z,0
2018-09-05T01:19:42.309Z,0
2018-09-05T01:20:43.036Z,0
2018-09-05T01:21:44.016Z,0
2018-09-05T01:22:44.743Z,0
2018-09-05T01:23:45.462Z,0
2018-09-05T01:24:46.189Z,0
2018-09-05T01:25:46.932Z,0
2018-09-05T01:26:47.661Z,0
2018-09-05T01:27:48.374Z,0
2018-09-05T01:28:49.103Z,0
2018-09-05T01:29:49.830Z,0
2018-09-05T01:30:50.547Z,0
2018-09-05T01:31:51.279Z,0
2018-09-05T01:32:52.046Z,0
2018-09-05T01:33:52.772Z,0
2018-09-05T01:34:53.497Z,0
2018-09-05T01:35:54.224Z,0
2018-09-05T01:36:54.974Z,0
2018-09-05T01:37:55.702Z,0
2018-09-05T01:38:56.424Z,0
2018-09-05T01:39:57.143Z,0
2018-09-05T01:40:57.876Z,0
2018-09-05T01:41:58.606Z,0
2018-09-05T01:42:59.335Z,0
2018-09-05T01:44:00.062Z,0
2018-09-05T01:45:00.789Z,0
2018-09-05T01:46:01.759Z,0
2018-09-05T01:47:02.468Z,0
2018-09-05T01:48:03.196Z,0
2018-09-05T01:49:03.916Z,0
2018-09-05T01:50:04.637Z,0
2018-09-05T01:51:05.635Z,0
2018-09-05T01:52:06.348Z,0
2018-09-05T01:53:07.086Z,0
2018-09-05T01:54:07.854Z,0
2018-09-05T01:55:08.828Z,0
2018-09-05T01:56:09.563Z,0
2018-09-05T01:57:10.297Z,0
2018-09-05T01:58:11.029Z,0
2018-09-05T01:59:11.752Z,0
2018-09-05T02:00:12.726Z,0
2018-09-05T02:01:13.445Z,0
2018-09-05T02:02:14.419Z,0
2018-09-05T02:03:15.152Z,0
2018-09-05T02:04:16.206Z,0
2018-09-05T02:05:16.971Z,0
2018-09-05T02:06:17.696Z,0
2018-09-05T02:07:18.413Z,0
2018-09-05T02:08:19.172Z,0
2018-09-05T02:09:19.864Z,0
2018-09-05T02:10:20.597Z,0
2018-09-05T02:11:21.312Z,0
2018-09-05T02:12:22.091Z,0
2018-09-05T02:13:22.821Z,0
2018-09-05T02:14:23.533Z,0
2018-09-05T02:15:24.253Z,0
2018-09-05T02:16:25.218Z,0
2018-09-05T02:17:25.942Z,0
2018-09-05T02:18:26.671Z,0
2018-09-05T02:19:27.397Z,0
2018-09-05T02:20:28.123Z,0
2018-09-05T02:21:28.870Z,0
2018-09-05T02:22:29.650Z,0
2018-09-05T02:23:30.375Z,0
2018-09-05T02:24:31.100Z,0
2018-09-05T02:25:31.823Z,0
2018-09-05T02:26:32.537Z,0
2018-09-05T02:27:33.262Z,0
2018-09-05T02:28:33.985Z,0
2018-09-05T02:29:34.950Z,0
2018-09-05T02:30:35.680Z,0
2018-09-05T02:31:36.402Z,0
2018-09-05T02:32:37.724Z,0
2018-09-05T02:33:38.443Z,0
2018-09-05T02:34:39.409Z,0
2018-09-05T02:35:40.131Z,0
2018-09-05T02:36:40.854Z,0
2018-09-05T02:37:41.588Z,0
2018-09-05T02:38:42.322Z,0
2018-09-05T02:39:43.054Z,0
2018-09-05T02:40:44.169Z,0
2018-09-05T02:41:44.875Z,0
2018-09-05T02:42:45.601Z,0
2018-09-05T02:43:46.326Z,0
2018-09-05T02:44:47.055Z,0
2018-09-05T02:45:47.781Z,0
2018-09-05T02:46:48.499Z,0
2018-09-05T02:47:49.244Z,0
2018-09-05T02:48:50.218Z,0
2018-09-05T02:49:50.952Z,0
2018-09-05T02:50:51.921Z,0
2018-09-05T02:51:52.641Z,0
2018-09-05T02:52:53.367Z,0
2018-09-05T02:53:54.093Z,0
2018-09-05T02:54:54.867Z,0
2018-09-05T02:55:55.587Z,0
2018-09-05T02:56:56.304Z,0
2018-09-05T02:57:57.046Z,0
2018-09-05T02:58:57.770Z,0
2018-09-05T02:59:58.492Z,0
2018-09-05T03:00:59.765Z,0
2018-09-05T03:02:00.483Z,0
2018-09-05T03:03:01.515Z,0
2018-09-05T03:04:02.233Z,0
2018-09-05T03:05:02.959Z,0
2018-09-05T03:06:03.683Z,0
2018-09-05T03:07:04.408Z,0
2018-09-05T03:08:05.125Z,0
2018-09-05T03:09:05.860Z,0
2018-09-05T03:10:06.581Z,0
2018-09-05T03:11:07.306Z,0
2018-09-05T03:12:08.020Z,0
2018-09-05T03:13:08.751Z,0
2018-09-05T03:14:09.479Z,0
2018-09-05T03:15:10.204Z,0
2018-09-05T03:16:10.932Z,0
2018-09-05T03:17:11.662Z,0
2018-09-05T03:18:12.387Z,0
2018-09-05T03:19:13.124Z,0
2018-09-05T03:20:13.843Z,0
2018-09-05T03:21:14.555Z,0
2018-09-05T03:22:15.277Z,0
2018-09-05T03:23:16.014Z,0
2018-09-05T03:24:16.749Z,0
2018-09-05T03:25:17.813Z,0
2018-09-05T03:26:18.536Z,0
2018-09-05T03:27:19.266Z,0
2018-09-05T03:28:19.985Z,0
2018-09-05T03:29:20.718Z,0
2018-09-05T03:30:21.445Z,0
2018-09-05T03:31:22.172Z,0
2018-09-05T03:32:22.956Z,0
2018-09-05T03:33:23.917Z,0
2018-09-05T03:34:24.627Z,0
2018-09-05T03:35:25.341Z,0
2018-09-05T03:36:26.065Z,0
2018-09-05T03:37:26.845Z,0
2018-09-05T03:38:27.562Z,0
2018-09-05T03:39:28.287Z,0
2018-09-05T03:40:29.007Z,0
2018-09-05T03:41:29.976Z,0
2018-09-05T03:42:30.724Z,0
2018-09-05T03:43:31.446Z,0
2018-09-05T03:44:32.218Z,0
2018-09-05T03:45:32.933Z,0
2018-09-05T03:46:33.659Z,0
2018-09-05T03:47:34.378Z,0
2018-09-05T03:48:35.095Z,0
2018-09-05T03:49:35.917Z,0
2018-09-05T03:50:36.626Z,0
2018-09-05T03:51:37.347Z,0
2018-09-05T03:52:38.063Z,0
2018-09-05T03:53:38.793Z,0
2018-09-05T03:54:39.868Z,0
2018-09-05T03:55:40.583Z,0
2018-09-05T03:56:41.309Z,0
2018-09-05T03:57:42.031Z,0
2018-09-05T03:58:42.752Z,0
2018-09-05T03:59:43.510Z,0
2018-09-05T04:00:44.220Z,0
2018-09-05T04:01:44.949Z,0
2018-09-05T04:02:45.691Z,0
2018-09-05T04:03:46.394Z,0
2018-09-05T04:04:47.119Z,0
2018-09-05T04:05:47.892Z,0
2018-09-05T04:06:48.620Z,0
2018-09-05T04:07:49.343Z,4
2018-09-05T04:08:50.072Z,4
2018-09-05T04:09:50.818Z,0
2018-09-05T04:10:51.529Z,4
2018-09-05T04:11:52.256Z,4
2018-09-05T04:12:52.984Z,4
2018-09-05T04:13:53.703Z,8
2018-09-05T04:14:54.418Z,8
2018-09-05T04:15:55.137Z,8
2018-09-05T04:16:56.461Z,8
2018-09-05T04:17:57.176Z,12
2018-09-05T04:18:57.895Z,12
2018-09-05T04:19:58.621Z,12
2018-09-05T04:20:59.350Z,20
2018-09-05T04:22:00.089Z,24
2018-09-05T04:23:00.797Z,28
2018-09-05T04:24:01.521Z,32
2018-09-05T04:25:02.295Z,36
2018-09-05T04:26:03.023Z,44
2018-09-05T04:27:03.766Z,52
2018-09-05T04:28:04.477Z,60
2018-09-05T04:29:05.198Z,68
2018-09-05T04:30:05.985Z,80
2018-09-05T04:31:06.736Z,92
2018-09-05T04:32:07.459Z,104
2018-09-05T04:33:08.181Z,120
2018-09-05T04:34:09.155Z,132
2018-09-05T04:35:10.126Z,148
2018-09-05T04:36:10.835Z,168
2018-09-05T04:37:11.575Z,188
2018-09-05T04:38:12.294Z,208
2018-09-05T04:39:13.022Z,232
2018-09-05T04:40:13.756Z,252
2018-09-05T04:41:14.478Z,276
2018-09-05T04:42:15.216Z,304
2018-09-05T04:43:15.947Z,332
2018-09-05T04:44:16.674Z,360
2018-09-05T04:45:17.506Z,392
2018-09-05T04:46:18.110Z,420
2018-09-05T04:47:18.889Z,456
2018-09-05T04:48:19.623Z,492
2018-09-05T04:49:20.350Z,528
2018-09-05T04:50:21.074Z,568
2018-09-05T04:51:21.803Z,604
2018-09-05T04:52:22.530Z,648
2018-09-05T04:53:23.261Z,688
2018-09-05T04:54:23.990Z,728
2018-09-05T04:55:24.761Z,772
2018-09-05T04:56:25.495Z,820
2018-09-05T04:57:26.483Z,868
2018-09-05T04:58:27.237Z,912
2018-09-05T04:59:27.981Z,960
2018-09-05T05:00:28.712Z,1008
2018-09-05T05:01:29.438Z,1060
2018-09-05T05:02:30.418Z,1112
2018-09-05T05:03:31.154Z,1164
2018-09-05T05:04:32.027Z,1216
2018-09-05T05:05:32.662Z,1284
2018-09-05T05:06:33.384Z,1336
2018-09-05T05:07:34.115Z,1392
2018-09-05T05:08:34.834Z,1444
2018-09-05T05:09:35.616Z,1488
2018-09-05T05:10:36.345Z,1540
2018-09-05T05:11:37.056Z,1592
2018-09-05T05:12:38.356Z,1640
2018-09-05T05:13:39.016Z,1676
2018-09-05T05:14:39.802Z,1728
2018-09-05T05:15:40.521Z,1784
2018-09-05T05:16:41.250Z,1836
2018-09-05T05:17:41.981Z,1888
2018-09-05T05:18:42.731Z,1944
2018-09-05T05:19:43.499Z,1992
2018-09-05T05:20:44.260Z,2044
2018-09-05T05:21:45.262Z,2100
2018-09-05T05:22:45.986Z,2152
2018-09-05T05:23:46.714Z,2204
2018-09-05T05:24:47.452Z,2256
2018-09-05T05:25:48.179Z,2312
2018-09-05T05:26:48.919Z,2368
2018-09-05T05:27:49.633Z,2420
2018-09-05T05:28:50.349Z,2472
2018-09-05T05:29:51.135Z,2524
2018-09-05T05:30:51.868Z,2580
2018-09-05T05:31:52.586Z,2628
2018-09-05T05:32:53.628Z,2680
2018-09-05T05:33:54.319Z,2732
2018-09-05T05:34:55.062Z,2788
2018-09-05T05:35:55.796Z,2832
2018-09-05T05:36:56.525Z,2900
2018-09-05T05:37:57.507Z,2952
2018-09-05T05:38:58.247Z,3008
2018-09-05T05:39:58.985Z,3072
2018-09-05T05:40:59.717Z,3132
2018-09-05T05:42:00.440Z,3196
2018-09-05T05:43:01.185Z,3264
2018-09-05T05:44:02.173Z,3324
2018-09-05T05:45:02.907Z,3388
2018-09-05T05:46:03.679Z,3444
2018-09-05T05:47:04.418Z,3496
2018-09-05T05:48:05.151Z,3548
2018-09-05T05:49:06.945Z,3608
2018-09-05T05:50:07.982Z,3664
2018-09-05T05:51:09.137Z,3716
2018-09-05T05:52:10.224Z,3768
2018-09-05T05:53:10.949Z,3816
2018-09-05T05:54:11.962Z,3872
2018-09-05T05:55:12.744Z,3920
2018-09-05T05:56:13.469Z,3972
2018-09-05T05:57:14.194Z,4024
2018-09-05T05:58:14.919Z,4068
2018-09-05T05:59:15.659Z,4116
2018-09-05T06:00:16.387Z,4164
2018-09-05T06:01:17.183Z,4204
2018-09-05T06:02:17.892Z,4252
2018-09-05T06:03:18.607Z,4300
2018-09-05T06:04:19.327Z,4344
2018-09-05T06:05:20.046Z,4388
2018-09-05T06:06:20.902Z,4436
2018-09-05T06:07:21.537Z,4476
2018-09-05T06:08:22.275Z,4516
2018-09-05T06:09:22.999Z,4556
2018-09-05T06:10:23.732Z,4596
2018-09-05T06:11:24.462Z,4628
2018-09-05T06:12:25.181Z,4672
2018-09-05T06:13:25.914Z,4712
2018-09-05T06:14:26.641Z,4752
2018-09-05T06:15:27.722Z,4796
2018-09-05T06:16:28.397Z,4836
2018-09-05T06:17:29.114Z,4880
2018-09-05T06:18:29.839Z,4968
2018-09-05T06:19:30.577Z,4988
2018-09-05T06:20:31.558Z,4996
2018-09-05T06:21:32.282Z,5036
2018-09-05T06:22:33.013Z,5076
2018-09-05T06:23:33.743Z,5112
2018-09-05T06:24:34.465Z,5160
2018-09-05T06:25:35.252Z,5208
2018-09-05T06:26:35.984Z,5260
2018-09-05T06:27:36.721Z,5300
2018-09-05T06:28:37.438Z,5344
2018-09-05T06:29:38.169Z,5388
2018-09-05T06:30:39.278Z,5432
2018-09-05T06:31:39.892Z,5480
2018-09-05T06:32:40.617Z,5520
2018-09-05T06:33:41.338Z,5568
2018-09-05T06:34:42.069Z,5608
2018-09-05T06:35:42.844Z,5648
2018-09-05T06:36:43.583Z,5680
2018-09-05T06:37:44.323Z,5712
2018-09-05T06:38:45.038Z,6012
2018-09-05T06:39:45.771Z,5904
2018-09-05T06:40:46.546Z,5832
2018-09-05T06:41:47.281Z,5864
2018-09-05T06:42:48.002Z,5904
2018-09-05T06:43:48.737Z,5936
2018-09-05T06:44:49.516Z,5964
2018-09-05T06:45:50.248Z,6008
2018-09-05T06:46:50.978Z,6036
2018-09-05T06:47:51.706Z,6084
2018-09-05T06:48:52.433Z,6100
2018-09-05T06:49:53.183Z,6140
2018-09-05T06:50:53.965Z,6180
2018-09-05T06:51:54.942Z,6396
2018-09-05T06:52:55.709Z,6488
2018-09-05T06:53:56.420Z,6300
2018-09-05T06:54:57.422Z,6128
2018-09-05T06:55:58.596Z,6396
2018-09-05T06:56:59.398Z,6836
2018-09-05T06:58:00.178Z,7088
2018-09-05T06:59:00.911Z,6592
2018-09-05T07:00:01.649Z,6676
2018-09-05T07:01:02.365Z,6740
2018-09-05T07:02:03.104Z,6792
2018-09-05T07:03:03.828Z,6836
2018-09-05T07:04:04.557Z,6880
2018-09-05T07:05:05.287Z,6936
2018-09-05T07:06:06.141Z,6984
2018-09-05T07:07:06.748Z,7028
2018-09-05T07:08:07.457Z,7064
2018-09-05T07:09:08.201Z,7120
2018-09-05T07:10:09.031Z,7184
2018-09-05T07:11:09.724Z,7212
2018-09-05T07:12:10.498Z,7280
2018-09-05T07:13:11.232Z,7292
2018-09-05T07:14:12.099Z,7340
2018-09-05T07:15:12.697Z,7368
2018-09-05T07:16:13.437Z,7400
2018-09-05T07:17:14.174Z,7460
2018-09-05T07:18:14.902Z,7504
2018-09-05T07:19:15.631Z,7528
2018-09-05T07:20:16.359Z,7616
2018-09-05T07:21:17.178Z,7584
2018-09-05T07:22:17.816Z,7768
2018-09-05T07:23:20.721Z,7756
2018-09-05T07:24:21.308Z,7656
2018-09-05T07:25:22.498Z,7712
2018-09-05T07:26:23.220Z,9824
2018-09-05T07:27:23.951Z,9608
2018-09-05T07:28:25.028Z,7744
2018-09-05T07:29:25.768Z,8652
2018-09-05T07:30:26.585Z,8412
2018-09-05T07:31:27.241Z,8436
2018-09-05T07:32:27.961Z,7944
2018-09-05T07:33:29.498Z,8004
2018-09-05T07:34:30.230Z,8040
2018-09-05T07:35:31.038Z,8108
2018-09-05T07:36:31.699Z,8172
2018-09-05T07:37:32.440Z,8660
2018-09-05T07:38:33.522Z,10132
2018-09-05T07:39:34.247Z,10436
2018-09-05T07:40:34.973Z,13972
2018-09-05T07:41:35.710Z,19840
2018-09-05T07:42:36.434Z,11672
2018-09-05T07:43:37.505Z,16952
2018-09-05T07:44:38.166Z,20832
2018-09-05T07:45:38.891Z,25696
2018-09-05T07:46:39.619Z,11440
2018-09-05T07:47:40.347Z,11908
2018-09-05T07:48:41.080Z,10880
2018-09-05T07:49:42.062Z,13124
2018-09-05T07:50:42.839Z,8876
2018-09-05T07:51:44.483Z,8316
2018-09-05T07:52:46.146Z,8380
2018-09-05T07:53:47.531Z,15308
2018-09-05T07:54:48.251Z,9532
2018-09-05T07:55:48.986Z,10580
2018-09-05T07:56:49.697Z,9832
2018-09-05T07:57:50.428Z,17888
2018-09-05T07:58:51.168Z,11956
2018-09-05T07:59:51.901Z,9676
2018-09-05T08:00:52.625Z,29696
2018-09-05T08:01:53.347Z,23584
2018-09-05T08:02:54.108Z,16380
2018-09-05T08:03:54.860Z,23104
2018-09-05T08:04:55.601Z,35744
2018-09-05T08:05:56.331Z,37376
2018-09-05T08:06:57.059Z,44128
2018-09-05T08:07:57.783Z,46016
2018-09-05T08:08:58.517Z,29632
2018-09-05T08:09:59.297Z,42944
2018-09-05T08:11:00.039Z,43168
2018-09-05T08:12:00.784Z,45280
2018-09-05T08:13:01.522Z,49376
2018-09-05T08:14:03.518Z,41856
2018-09-05T08:15:04.827Z,50144
2018-09-05T08:16:05.551Z,40480
2018-09-05T08:17:06.289Z,45088
2018-09-05T08:18:07.068Z,41984
2018-09-05T08:19:08.097Z,44544
2018-09-05T08:20:09.006Z,48448
2018-09-05T08:21:09.812Z,49824
2018-09-05T08:22:10.789Z,48352
2018-09-05T08:23:11.535Z,46880
2018-09-05T08:24:12.624Z,47872
2018-09-05T08:25:13.619Z,52672
2018-09-05T08:26:14.503Z,55392
2018-09-05T08:27:15.739Z,53312
2018-09-05T08:28:16.715Z,49536
2018-09-05T08:29:17.523Z,46944
2018-09-05T08:30:18.241Z,47392
2018-09-05T08:31:18.973Z,49568
2018-09-05T08:32:19.708Z,49696
2018-09-05T08:33:20.442Z,47936
2018-09-05T08:34:21.520Z,46816
2018-09-05T08:35:22.476Z,47488
2018-09-05T08:36:23.300Z,47968
2018-09-05T08:37:23.984Z,46528
2018-09-05T08:38:24.533Z,44928
2018-09-05T08:39:25.215Z,44608
2018-09-05T08:40:25.937Z,42880
2018-09-05T08:41:26.775Z,41280
2018-09-05T08:42:27.515Z,42368
2018-09-05T08:43:28.170Z,45568
2018-09-05T08:44:28.977Z,46752
2018-09-05T08:45:29.954Z,45696
2018-09-05T08:46:30.325Z,44416
2018-09-05T08:47:31.116Z,43392
2018-09-05T08:48:31.834Z,42560
2018-09-05T08:49:32.537Z,42656
2018-09-05T08:50:33.306Z,45952
2018-09-05T08:51:34.004Z,47104
2018-09-05T08:52:34.989Z,47520
2018-09-05T08:53:35.735Z,51040
2018-09-05T08:54:36.769Z,55008
2018-09-05T08:55:37.492Z,55808
2018-09-05T08:56:38.301Z,52960
2018-09-05T08:57:38.960Z,50432
2018-09-05T08:58:39.716Z,50688
2018-09-05T08:59:40.481Z,53952
2018-09-05T09:00:41.208Z,56224
2018-09-05T09:01:41.935Z,54336
2018-09-05T09:02:42.665Z,50624
2018-09-05T09:03:43.406Z,51392
2018-09-05T09:04:44.306Z,56320
2018-09-05T09:05:44.867Z,59904
2018-09-05T09:06:45.593Z,61536
2018-09-05T09:07:46.323Z,63136
2018-09-05T09:08:47.087Z,65152
2018-09-05T09:09:48.422Z,64640
2018-09-05T09:10:49.145Z,62144
2018-09-05T09:11:49.881Z,60352
2018-09-05T09:12:50.635Z,63392
2018-09-05T09:13:51.362Z,68192
2018-09-05T09:14:52.100Z,70496
2018-09-05T09:15:52.826Z,69920
2018-09-05T09:16:53.558Z,68544
2018-09-05T09:17:54.370Z,66496
2018-09-05T09:18:55.108Z,65120
2018-09-05T09:19:55.889Z,62880
2018-09-05T09:20:56.621Z,62496
2018-09-05T09:21:57.352Z,63968
2018-09-05T09:22:58.089Z,69120
2018-09-05T09:23:58.818Z,71904
2018-09-05T09:24:59.557Z,69760
2018-09-05T09:26:00.285Z,67936
2018-09-05T09:27:01.018Z,68480
2018-09-05T09:28:01.889Z,68288
2018-09-05T09:29:02.552Z,67200
2018-09-05T09:30:03.285Z,67392
2018-09-05T09:31:04.277Z,67616
2018-09-05T09:32:05.019Z,68608
2018-09-05T09:33:05.752Z,69152
2018-09-05T09:34:06.486Z,67872
2018-09-05T09:35:07.233Z,64128
2018-09-05T09:36:07.963Z,61856
2018-09-05T09:37:08.949Z,64608
2018-09-05T09:38:09.781Z,68640
2018-09-05T09:39:10.510Z,67232
2018-09-05T09:40:11.246Z,60288
2018-09-05T09:41:11.972Z,56576
2018-09-05T09:42:12.715Z,59552
2018-09-05T09:43:13.453Z,63520
2018-09-05T09:44:14.439Z,63040
2018-09-05T09:45:15.177Z,62752
2018-09-05T09:46:15.913Z,64000
2018-09-05T09:47:16.651Z,65024
2018-09-05T09:48:17.459Z,67296
2018-09-05T09:49:18.193Z,69408
2018-09-05T09:50:18.935Z,67488
2018-09-05T09:51:19.675Z,61536
2018-09-05T09:52:20.411Z,56608
2018-09-05T09:53:21.149Z,56608
2018-09-05T09:54:21.874Z,60992
2018-09-05T09:55:22.626Z,68128
2018-09-05T09:56:23.362Z,73920
2018-09-05T09:57:24.149Z,74304
2018-09-05T09:58:24.895Z,69760
2018-09-05T09:59:25.629Z,66080
2018-09-05T10:00:26.364Z,66432
2018-09-05T10:01:27.100Z,67840
2018-09-05T10:02:27.893Z,67136
2018-09-05T10:03:28.728Z,65024
2018-09-05T10:04:29.366Z,64448
2018-09-05T10:05:30.099Z,66528
2018-09-05T10:06:30.841Z,69248
2018-09-05T10:07:31.571Z,70912
2018-09-05T10:08:32.555Z,72704
2018-09-05T10:09:33.366Z,71808
2018-09-05T10:10:34.113Z,68480
2018-09-05T10:11:34.849Z,63872
2018-09-05T10:12:35.586Z,61984
2018-09-05T10:13:36.321Z,64416
2018-09-05T10:14:37.102Z,66080
2018-09-05T10:15:37.846Z,65696
2018-09-05T10:16:38.579Z,66752
2018-09-05T10:17:39.318Z,70336
2018-09-05T10:18:40.054Z,73504
2018-09-05T10:19:40.804Z,74432
2018-09-05T10:20:41.537Z,74336
2018-09-05T10:21:42.279Z,74464
2018-09-05T10:22:43.044Z,74080
2018-09-05T10:23:43.760Z,72672
2018-09-05T10:24:44.537Z,70368
2018-09-05T10:25:45.284Z,68544
2018-09-05T10:26:46.021Z,68416
2018-09-05T10:27:46.768Z,69184
2018-09-05T10:28:47.505Z,68640
2018-09-05T10:29:48.263Z,69408
2018-09-05T10:30:48.996Z,68736
2018-09-05T10:31:50.001Z,69952
2018-09-05T10:32:50.731Z,71712
2018-09-05T10:33:51.472Z,70880
2018-09-05T10:34:52.217Z,68960
2018-09-05T10:35:53.001Z,68992
2018-09-05T10:36:53.983Z,70720
2018-09-05T10:37:54.980Z,70816
2018-09-05T10:38:55.706Z,65984
2018-09-05T10:39:56.706Z,61120
2018-09-05T10:40:57.447Z,62144
2018-09-05T10:41:58.192Z,66240
2018-09-05T10:42:58.924Z,69344
2018-09-05T10:43:59.665Z,66624
2018-09-05T10:45:00.399Z,64256
2018-09-05T10:46:01.138Z,63712
2018-09-05T10:47:01.873Z,66976
2018-09-05T10:48:02.616Z,69728
2018-09-05T10:49:03.342Z,69760
2018-09-05T10:50:04.067Z,67872
2018-09-05T10:51:04.814Z,68320
2018-09-05T10:52:05.539Z,72000
2018-09-05T10:53:06.283Z,74560
2018-09-05T10:54:07.040Z,77024
2018-09-05T10:55:07.768Z,77728
2018-09-05T10:56:08.501Z,73344
2018-09-05T10:57:09.271Z,67904
2018-09-05T10:58:10.026Z,67360
2018-09-05T10:59:10.761Z,70176
2018-09-05T11:00:11.494Z,72576
2018-09-05T11:01:12.242Z,73536
2018-09-05T11:02:12.975Z,72704
2018-09-05T11:03:13.707Z,71392
2018-09-05T11:04:14.515Z,69792
2018-09-05T11:05:15.942Z,70528
2018-09-05T11:06:16.702Z,73920
2018-09-05T11:07:17.437Z,75360
2018-09-05T11:08:18.521Z,73376
2018-09-05T11:09:19.428Z,72160
2018-09-05T11:10:20.578Z,72960
2018-09-05T11:11:21.296Z,74624
2018-09-05T11:12:22.033Z,75200
2018-09-05T11:13:22.776Z,73152
2018-09-05T11:14:23.507Z,70784
2018-09-05T11:15:24.612Z,71040
2018-09-05T11:16:25.335Z,76864
2018-09-05T11:17:26.079Z,82176
2018-09-05T11:18:26.816Z,82912
2018-09-05T11:19:27.595Z,77632
2018-09-05T11:20:28.300Z,76352
2018-09-05T11:21:29.033Z,77472
2018-09-05T11:22:30.024Z,76928
2018-09-05T11:23:30.764Z,73216
2018-09-05T11:24:31.552Z,69216
2018-09-05T11:25:32.548Z,66144
2018-09-05T11:26:33.291Z,69440
2018-09-05T11:27:34.048Z,74976
2018-09-05T11:28:34.768Z,75904
2018-09-05T11:29:35.840Z,73024
2018-09-05T11:30:36.584Z,70752
2018-09-05T11:31:37.328Z,73600
2018-09-05T11:32:38.074Z,77632
2018-09-05T11:33:38.952Z,78752
2018-09-05T11:34:39.691Z,79872
2018-09-05T11:35:40.439Z,78368
2018-09-05T11:36:41.170Z,74240
2018-09-05T11:37:42.166Z,69312
2018-09-05T11:38:42.889Z,66624
2018-09-05T11:39:43.643Z,67936
2018-09-05T11:40:44.379Z,71328
2018-09-05T11:41:45.112Z,72704
2018-09-05T11:42:45.845Z,72544
2018-09-05T11:43:46.587Z,72800
2018-09-05T11:44:47.421Z,72128
2018-09-05T11:45:48.113Z,72960
2018-09-05T11:46:48.846Z,74176
2018-09-05T11:47:49.589Z,75552
2018-09-05T11:48:50.573Z,74624
2018-09-05T11:49:51.368Z,75136
2018-09-05T11:50:52.103Z,75520
2018-09-05T11:51:52.834Z,75808
2018-09-05T11:52:53.581Z,75456
2018-09-05T11:53:54.342Z,76352
2018-09-05T11:54:55.135Z,77792
2018-09-05T11:55:55.868Z,74880
2018-09-05T11:56:56.599Z,70304
2018-09-05T11:57:57.330Z,71168
2018-09-05T11:58:58.075Z,76960
2018-09-05T11:59:58.820Z,81056
2018-09-05T12:00:59.632Z,77536
2018-09-05T12:02:00.387Z,70240
2018-09-05T12:03:01.139Z,66016
2018-09-05T12:04:01.874Z,64736
2018-09-05T12:05:02.654Z,67872
2018-09-05T12:06:03.454Z,70880
2018-09-05T12:07:04.134Z,72448
2018-09-05T12:08:04.876Z,74208
2018-09-05T12:09:05.613Z,73696
2018-09-05T12:10:06.359Z,72256
2018-09-05T12:11:07.100Z,72800
2018-09-05T12:12:07.891Z,75360
2018-09-05T12:13:08.571Z,76960
2018-09-05T12:14:09.552Z,76064
2018-09-05T12:15:10.295Z,71328
2018-09-05T12:16:11.087Z,66784
2018-09-05T12:17:11.824Z,66976
2018-09-05T12:18:12.560Z,69440
2018-09-05T12:19:13.311Z,69952
2018-09-05T12:20:14.044Z,66848
2018-09-05T12:21:14.841Z,66688
2018-09-05T12:22:15.567Z,70624
2018-09-05T12:23:16.314Z,73408
2018-09-05T12:24:17.063Z,72608
2018-09-05T12:25:18.010Z,70848
2018-09-05T12:26:19.322Z,69216
2018-09-05T12:27:20.056Z,65536
2018-09-05T12:28:20.783Z,62624
2018-09-05T12:29:21.568Z,64512
2018-09-05T12:30:22.308Z,66304
2018-09-05T12:31:23.060Z,63552
2018-09-05T12:32:23.811Z,57472
2018-09-05T12:33:25.469Z,53216
2018-09-05T12:34:26.200Z,56480
2018-09-05T12:35:26.947Z,63072
2018-09-05T12:36:27.714Z,63872
2018-09-05T12:37:28.496Z,56832
2018-09-05T12:38:29.498Z,51360
2018-09-05T12:39:30.230Z,52864
2018-09-05T12:40:30.969Z,57888
2018-09-05T12:41:31.715Z,59904
2018-09-05T12:42:32.450Z,57664
2018-09-05T12:43:33.200Z,54848
2018-09-05T12:44:33.956Z,56160
2018-09-05T12:45:34.701Z,59648
2018-09-05T12:46:35.441Z,60768
2018-09-05T12:47:36.194Z,59008
2018-09-05T12:48:36.951Z,59680
2018-09-05T12:49:38.048Z,66368
2018-09-05T12:50:38.801Z,70112
2018-09-05T12:51:39.544Z,64864
2018-09-05T12:52:40.531Z,55648
2018-09-05T12:53:41.282Z,51328
2018-09-05T12:54:42.014Z,53984
2018-09-05T12:55:42.768Z,58976
2018-09-05T12:56:43.510Z,61600
2018-09-05T12:57:44.248Z,61856
2018-09-05T12:58:45.031Z,60480
2018-09-05T12:59:46.021Z,65024
2018-09-05T13:00:46.767Z,36992
2018-09-05T13:01:47.512Z,62816
2018-09-05T13:02:48.249Z,60416
2018-09-05T13:03:49.046Z,29792
2018-09-05T13:04:49.788Z,28032
2018-09-05T13:05:50.527Z,29792
2018-09-05T13:06:51.286Z,36640
2018-09-05T13:07:52.012Z,18528
2018-09-05T13:08:52.807Z,41312
2018-09-05T13:09:53.550Z,23424
2018-09-05T13:10:54.289Z,17092
2018-09-05T13:11:55.023Z,18592
2018-09-05T13:12:56.018Z,17716
2018-09-05T13:13:57.097Z,14376
2018-09-05T13:14:57.843Z,14372
2018-09-05T13:15:58.582Z,16264
2018-09-05T13:16:59.330Z,16472
2018-09-05T13:18:00.061Z,18016
2018-09-05T13:19:01.411Z,26144
2018-09-05T13:20:02.146Z,16816
2018-09-05T13:21:02.886Z,25664
2018-09-05T13:22:03.623Z,15564
2018-09-05T13:23:04.383Z,16672
2018-09-05T13:24:05.108Z,20096
2018-09-05T13:25:05.868Z,17668
2018-09-05T13:26:06.605Z,17828
2018-09-05T13:27:07.389Z,18208
2018-09-05T13:28:08.104Z,15104
2018-09-05T13:29:08.835Z,47744
2018-09-05T13:30:09.572Z,40800
2018-09-05T13:31:10.325Z,51520
2018-09-05T13:32:11.079Z,44128
2018-09-05T13:33:11.860Z,19936
2018-09-05T13:34:12.807Z,14456
2018-09-05T13:35:13.536Z,15416
2018-09-05T13:36:14.530Z,25824
2018-09-05T13:37:15.262Z,21696
2018-09-05T13:38:15.995Z,18268
2018-09-05T13:39:16.740Z,57408
2018-09-05T13:40:17.470Z,44640
2018-09-05T13:41:18.208Z,49216
2018-09-05T13:42:18.942Z,57920
2018-09-05T13:43:19.692Z,54624
2018-09-05T13:44:20.677Z,52864